Terminal Aerodrome Forecast
Issued by NWS

Home | Current Version | Previous Version | Text Only | Print | Product List | Glossary On
Versions: 1 2 3 4 5 6 7 8 9 10 11 12 13 14 15 16 17 18 19 20 21 22 23 24 25
000
FTUS44 KHGX 290922 AAA
TAFCXO
TAF AMD
KCXO 290922Z 2909/3006 00000KT P6SM BKN003 OVC011 WS020/19030KT
     FM291100 18002KT 6SM BR SCT003 BKN010
      TEMPO 2911/2915 BKN003
     FM291700 23008KT P6SM FEW025 SCT250
     FM300100 34007KT P6SM BKN100=

USA.gov is the U.S. government's official web portal to all federal, state and local government web resources and services.